الصفحة الرئيسية
METAR-TAF:

METAR-TAF

مطار :

مطار مهرآباد الدولي

طهران, إيران

دائرة عرض: 35-41N, خط طول: 051-21E, ارتفاع: 1204 متر

مراقبة الطقس الحالي

تاريخ ووقت الإصدار 30 دقيقة قبل الساعة 03:30UTC
رياح هادئة
درجة الحرارة 14°درجة مئوية
الرطوبة 55%
ضغط 1021 hPa
الرؤية 10 كم أو أكثر
الغيوم لا تقل 1500 م ولا وجود لمزنة ركامية السحاب الأسود

METAR: OIII 230330Z 00000KT CAVOK 14/05 Q1020 A3014

زمن: 07:30 (04:00 UTC)

توقعات

تاريخ ووقت الإصدار 4ساعات و 40 دقيقة قبل الساعة 23:20UTC
التوقعات صالحة من23 الساعة 00 UTC إلى 24 الساعة 06 UTC
ريح 8 عقدة من الشمال/الشمال الغربي
الرؤية: 7000 متر
مؤقت
من 23 الساعة 09 UTC إلى 23 الساعة 15 UTC
ريح 14 عقدة من الغرب
غيوم قليلة على ارتفاع 3500 قدم, مزن ركامية عمودية.
غيوم متفرقة على ارتفاع 4000 قدم

TAF: OIII 222320Z 2300/2406 34004MPS 7000 NSC TEMPO 2309/2315 26007MPS FEW035TCU SCT040

أرصاد الطقس والتوقعات من أكثر من 4000 مطار (تقارير الطقس للمطار METAR والتنبؤ بالطقس بالمطارTAF).

المحطات المتاحة هي النقط الصفراء والحمراء على الخريطة.

حرك المؤشر فوق النقطة لمعرفة اسم المحطة.

ثم انقر لمعرفة أرصاد وتوقعات الطقس.

لتغيير الخارطة: اضغط على الأزرار الخضراء مع رمز الصليب الأسود للتكبير. على الزر الأخضر مع شرطة للتصغير، أو على الأسهم الخضراء للخرائط المجاورة.


METAR-TAF: